Time;durP1;ratioP1;P1;durP2;ratioP2;P2;SDS_P1;SDS_P2;PMS_P1;PMS_P2;Temp;Humidity;BMP_temperature;BMP_pressure;BME280_temperature;BME280_humidity;BME280_pressure;Samples;Min_cycle;Max_cycle;Signal;HPM_P1;HPM_P2
2023/05/25 00:00:00;;;;;;;12.00;6.20;;;;;;;13.80;69.69;101476.76;85807;1298;20003373;-89
2023/05/25 00:02:47;;;;;;;16.40;7.40;;;;;;;13.85;69.80;101480.16;106051;1291;59778;-89
2023/05/25 00:05:34;;;;;;;15.10;6.20;;;;;;;13.86;69.82;101480.48;106020;1291;73199;-89
2023/05/25 00:08:24;;;;;;;14.20;6.40;;;;;;;13.86;69.88;101485.16;105891;1294;67413;-90
2023/05/25 00:11:11;;;;;;;12.70;6.20;;;;;;;13.86;69.73;101482.73;105919;1292;70463;-90
2023/05/25 00:13:58;;;;;;;10.00;6.10;;;;;;;13.87;69.83;101481.16;106009;1289;59121;-90
2023/05/25 00:16:47;;;;;;;13.30;6.50;;;;;;;13.87;69.88;101480.13;106002;1290;59335;-89
2023/05/25 00:19:34;;;;;;;8.50;5.90;;;;;;;13.87;69.93;101477.70;105898;1291;73207;-90
2023/05/25 00:22:20;;;;;;;10.30;5.90;;;;;;;13.87;69.85;101477.87;105880;1292;67593;-89
2023/05/25 00:25:07;;;;;;;13.40;6.70;;;;;;;13.85;69.83;101483.08;105817;1291;71459;-89
2023/05/25 00:27:53;;;;;;;8.50;5.80;;;;;;;13.85;69.93;101482.23;105792;1291;59253;-90
2023/05/25 00:30:40;;;;;;;11.40;5.80;;;;;;;13.86;69.90;101481.17;105871;1292;60202;-90
2023/05/25 00:33:26;;;;;;;9.80;5.60;;;;;;;13.86;69.88;101481.69;105838;1292;73278;-89
2023/05/25 00:36:13;;;;;;;7.50;5.30;;;;;;;13.85;69.87;101481.54;105912;1295;66996;-90
2023/05/25 00:39:00;;;;;;;12.60;5.70;;;;;;;13.84;69.96;101482.06;105857;1291;71219;-90
2023/05/25 00:41:49;;;;;;;9.50;5.40;;;;;;;13.85;69.93;101484.83;105884;1291;59207;-90
2023/05/25 00:44:38;;;;;;;9.20;5.40;;;;;;;13.84;69.95;101482.25;105974;1291;59082;-90
2023/05/25 00:47:26;;;;;;;10.40;5.30;;;;;;;13.83;69.98;101483.48;105881;1291;74879;-90
2023/05/25 00:50:16;;;;;;;23.30;7.00;;;;;;;13.83;69.91;101483.48;105923;1291;67416;-89
2023/05/25 00:53:03;;;;;;;13.00;5.60;;;;;;;13.82;69.97;101489.90;105799;1291;71566;-90
2023/05/25 00:56:02;;;;;;;12.30;5.70;;;;;;;13.81;69.97;101493.73;105943;1291;58924;-90
2023/05/25 00:59:09;;;;;;;16.20;6.00;;;;;;;13.81;69.92;101496.33;105821;1291;59040;-91
2023/05/25 01:02:06;;;;;;;10.20;5.10;;;;;;;13.81;70.03;101501.54;105856;1293;73390;-90
2023/05/25 01:05:02;;;;;;;10.20;5.50;;;;;;;13.78;70.02;101503.30;105863;1292;67364;-90
2023/05/25 01:07:51;;;;;;;13.90;5.80;;;;;;;13.78;70.15;101503.48;105955;1293;72529;-90
2023/05/25 01:10:41;;;;;;;8.80;5.40;;;;;;;13.78;70.12;101502.43;105932;1291;59138;-90
2023/05/25 01:13:28;;;;;;;9.90;5.80;;;;;;;13.78;70.14;101504.86;106078;1291;59253;-90
2023/05/25 01:16:18;;;;;;;11.50;5.70;;;;;;;13.77;70.06;101504.89;105854;1295;74690;-90
2023/05/25 01:19:05;;;;;;;11.20;5.30;;;;;;;13.75;70.14;101507.52;106031;1291;68548;-90
2023/05/25 01:22:07;;;;;;;;;;;;;;;13.76;70.15;101508.70;105829;1291;71416;-90
2023/05/25 01:25:02;;;;;;;8.90;5.30;;;;;;;13.76;70.13;101510.78;105951;1294;59390;-90
2023/05/25 01:27:58;;;;;;;18.00;6.10;;;;;;;13.76;70.09;101509.93;105757;1293;59313;-91
2023/05/25 01:30:49;;;;;;;14.50;6.00;;;;;;;13.75;70.06;101510.98;105882;1291;74585;-90
2023/05/25 01:33:37;;;;;;;13.60;5.80;;;;;;;13.73;70.10;101511.17;105960;1291;68975;-90
2023/05/25 01:36:24;;;;;;;12.40;5.80;;;;;;;13.72;70.18;101512.23;106026;1291;72616;-90
2023/05/25 01:39:13;;;;;;;11.40;5.20;;;;;;;13.74;70.12;101508.23;105939;1291;59009;-90
2023/05/25 01:42:00;;;;;;;12.90;6.10;;;;;;;13.74;70.10;101506.31;105991;1291;60245;-89
2023/05/25 01:44:47;;;;;;;11.80;5.90;;;;;;;13.73;70.04;101502.52;105898;1292;73855;-90
2023/05/25 01:47:52;;;;;;;17.30;6.30;;;;;;;13.72;70.10;101505.30;105914;1291;67499;-90
2023/05/25 01:50:53;;;;;;;10.20;5.80;;;;;;;13.72;70.13;101503.91;105984;1292;71433;-90
2023/05/25 01:53:44;;;;;;;11.60;5.10;;;;;;;13.70;70.20;101505.67;105764;1291;59137;-89
2023/05/25 01:56:34;;;;;;;10.30;5.40;;;;;;;13.70;70.07;101506.03;105926;1293;60836;-90
2023/05/25 01:59:23;;;;;;;15.10;5.40;;;;;;;13.69;70.16;101508.81;106028;1291;74173;-90
2023/05/25 02:02:14;;;;;;;15.10;5.20;;;;;;;13.66;70.13;101507.64;106051;1291;67521;-90
2023/05/25 02:05:01;;;;;;;10.70;5.70;;;;;;;13.64;70.17;101512.00;106055;1291;72796;-90
2023/05/25 02:07:51;;;;;;;14.10;6.10;;;;;;;13.61;70.19;101510.66;105703;1294;59337;-90
2023/05/25 02:10:39;;;;;;;16.60;5.40;;;;;;;13.57;70.15;101510.02;105488;1297;59211;-89
2023/05/25 02:13:25;;;;;;;13.90;5.80;;;;;;;13.52;70.16;101512.36;105636;1296;73186;-89
2023/05/25 02:16:13;;;;;;;12.90;5.40;;;;;;;13.45;70.13;101510.03;105443;1296;68281;-90
2023/05/25 02:19:01;;;;;;;22.50;5.30;;;;;;;13.38;70.11;101507.20;105604;1297;71254;-89
2023/05/25 02:21:48;;;;;;;13.70;6.50;;;;;;;13.33;70.25;101510.20;105561;1296;60446;-89
2023/05/25 02:24:36;;;;;;;13.10;5.90;;;;;;;13.29;70.16;101517.52;105622;1296;59334;-89
2023/05/25 02:27:23;;;;;;;13.20;5.60;;;;;;;13.25;70.18;101513.59;105553;1297;73322;-89
2023/05/25 02:30:11;;;;;;;17.20;5.20;;;;;;;13.23;70.22;101515.70;105546;1296;67502;-89
2023/05/25 02:33:01;;;;;;;15.00;5.60;;;;;;;13.20;70.23;101517.80;105530;1296;72562;-89
2023/05/25 02:35:48;;;;;;;14.70;5.20;;;;;;;13.18;70.21;101519.39;105536;1294;59567;-89
2023/05/25 02:38:35;;;;;;;12.20;5.00;;;;;;;13.15;70.21;101522.00;105541;1296;59143;-90
2023/05/25 02:41:23;;;;;;;10.90;5.60;;;;;;;13.13;70.27;101518.90;105713;1295;73648;-90
2023/05/25 02:44:09;;;;;;;7.80;5.20;;;;;;;13.11;70.28;101517.54;105486;1296;67701;-89
2023/05/25 02:46:55;;;;;;;10.40;5.40;;;;;;;13.08;70.28;101514.97;105963;1290;71159;-90
2023/05/25 02:49:41;;;;;;;11.70;5.40;;;;;;;13.05;70.25;101510.87;105961;1294;59029;-89
2023/05/25 02:52:30;;;;;;;9.90;5.10;;;;;;;13.01;70.22;101509.00;105953;1291;60069;-89
2023/05/25 02:55:17;;;;;;;7.50;5.00;;;;;;;12.98;70.25;101508.37;105947;1291;73335;-89
2023/05/25 02:58:04;;;;;;;;;;;;;;;12.95;70.21;101509.28;105916;1291;68193;-89
2023/05/25 03:00:53;;;;;;;15.00;5.40;;;;;;;12.88;70.32;101507.45;105955;1291;72424;-89
2023/05/25 03:03:39;;;;;;;11.60;5.50;;;;;;;12.84;70.27;101505.41;105917;1291;59173;-89
2023/05/25 03:06:26;;;;;;;11.00;5.50;;;;;;;12.80;70.35;101512.20;105845;1291;59544;-90
2023/05/25 03:09:12;;;;;;;14.50;5.20;;;;;;;12.78;70.35;101517.94;105972;1291;74583;-90
2023/05/25 03:11:59;;;;;;;14.40;5.90;;;;;;;12.78;70.37;101518.29;105850;1292;68114;-90
2023/05/25 03:14:46;;;;;;;10.10;6.10;;;;;;;12.75;70.30;101518.84;105846;1291;71139;-91
2023/05/25 03:17:34;;;;;;;9.00;5.50;;;;;;;12.73;70.37;101519.20;105999;1291;59348;-90
2023/05/25 03:20:23;;;;;;;11.10;5.40;;;;;;;12.74;70.47;101519.71;106082;1291;60089;-90
2023/05/25 03:23:11;;;;;;;15.80;6.10;;;;;;;12.74;70.48;101519.89;105876;1291;74116;-90
2023/05/25 03:26:00;;;;;;;11.80;6.20;;;;;;;12.74;70.44;101519.36;105963;1291;67281;-90
2023/05/25 03:28:48;;;;;;;12.30;5.90;;;;;;;12.74;70.44;101520.92;105885;1291;71001;-90
2023/05/25 03:31:35;;;;;;;13.60;6.30;;;;;;;12.77;70.47;101523.48;105902;1295;58927;-90
2023/05/25 03:34:23;;;;;;;9.90;6.00;;;;;;;12.79;70.46;101525.20;105963;1291;60123;-90
2023/05/25 03:37:10;;;;;;;13.20;6.10;;;;;;;12.81;70.55;101527.59;105932;1291;74338;-90
2023/05/25 03:39:57;;;;;;;11.60;6.30;;;;;;;12.84;70.52;101530.33;105967;1291;68458;-90
2023/05/25 03:42:44;;;;;;;12.30;5.90;;;;;;;12.83;70.45;101526.53;105928;1291;72617;-90
2023/05/25 03:45:31;;;;;;;10.50;5.80;;;;;;;12.84;70.48;101528.60;105930;1291;58966;-90
2023/05/25 03:48:19;;;;;;;13.70;5.90;;;;;;;12.85;70.56;101529.63;106106;1291;59020;-90
2023/05/25 03:51:13;;;;;;;13.60;6.50;;;;;;;12.89;70.52;101531.48;105951;1291;75468;-90
2023/05/25 03:54:00;;;;;;;10.10;6.10;;;;;;;12.91;70.56;101534.94;106053;1289;67601;-90
2023/05/25 03:56:48;;;;;;;10.50;5.60;;;;;;;12.92;70.62;101540.80;105789;1292;72299;-90
2023/05/25 03:59:36;;;;;;;10.70;5.90;;;;;;;12.96;70.66;101545.09;105974;1291;59326;-90
2023/05/25 04:02:27;;;;;;;12.70;5.80;;;;;;;13.00;70.59;101542.25;105986;1291;60237;-90
2023/05/25 04:05:15;;;;;;;12.70;6.40;;;;;;;13.06;70.71;101542.35;106129;1291;73653;-90
2023/05/25 04:08:07;;;;;;;12.10;6.30;;;;;;;13.14;70.71;101541.74;106014;1289;68640;-90
2023/05/25 04:10:56;;;;;;;9.40;6.40;;;;;;;13.23;70.77;101548.08;106095;1290;72541;-90
2023/05/25 04:13:42;;;;;;;9.10;6.10;;;;;;;13.30;70.63;101549.89;105974;1289;59277;-90
2023/05/25 04:16:28;;;;;;;12.90;6.30;;;;;;;13.34;70.59;101550.71;105834;1291;60176;-89
2023/05/25 04:19:15;;;;;;;11.10;6.10;;;;;;;13.41;70.71;101546.81;105910;1292;74197;-89
2023/05/25 04:22:01;;;;;;;9.20;5.10;;;;;;;13.49;70.67;101546.54;105828;1291;67828;-90
2023/05/25 04:24:47;;;;;;;15.40;5.80;;;;;;;13.54;70.64;101547.14;105858;1291;71300;-89
2023/05/25 04:27:33;;;;;;;16.30;7.60;;;;;;;13.59;70.67;101551.39;105969;1291;58945;-89
2023/05/25 04:30:19;;;;;;;12.90;6.20;;;;;;;13.65;70.63;101547.68;105908;1289;59209;-89
2023/05/25 04:33:05;;;;;;;13.90;6.50;;;;;;;13.68;70.57;101546.08;105909;1291;74406;-89
2023/05/25 04:35:53;;;;;;;14.40;7.20;;;;;;;13.74;70.59;101547.56;105787;1291;68625;-89
2023/05/25 04:38:40;;;;;;;14.60;5.60;;;;;;;13.78;70.62;101548.54;105908;1289;72917;-89
2023/05/25 04:41:28;;;;;;;14.40;5.40;;;;;;;13.84;70.57;101550.52;106035;1291;60061;-89
2023/05/25 04:44:14;;;;;;;10.70;5.00;;;;;;;13.88;70.58;101546.84;105856;1291;58968;-90
2023/05/25 04:47:02;;;;;;;18.10;6.10;;;;;;;13.90;70.51;101540.58;105864;1291;74618;-91
2023/05/25 04:50:17;;;;;;;19.70;5.40;;;;;;;13.96;70.59;101546.73;105952;1291;67495;-91
2023/05/25 04:54:01;;;;;;;11.50;5.00;;;;;;;14.03;70.57;101543.30;106063;1291;72405;-91
2023/05/25 04:56:50;;;;;;;9.30;4.60;;;;;;;14.11;70.48;101544.38;106143;1291;59000;-91
2023/05/25 04:59:57;;;;;;;10.40;5.30;;;;;;;14.17;70.41;101538.73;105685;1291;60591;-91
2023/05/25 05:02:44;;;;;;;14.70;5.40;;;;;;;14.23;70.53;101537.24;105856;1290;73620;-91
2023/05/25 05:05:35;;;;;;;10.80;5.00;;;;;;;14.35;70.47;101538.10;106041;1291;67556;-90
2023/05/25 05:08:23;;;;;;;11.10;4.80;;;;;;;14.58;70.60;101538.92;106172;1291;72552;-91
2023/05/25 05:11:11;;;;;;;10.10;4.20;;;;;;;15.07;70.71;101539.55;106150;1290;58906;-91
2023/05/25 05:14:01;;;;;;;13.10;4.40;;;;;;;15.67;70.56;101538.09;106141;1291;61084;-91
2023/05/25 05:16:52;;;;;;;13.10;5.00;;;;;;;16.30;70.21;101537.12;106116;1291;73306;-91
2023/05/25 05:19:45;;;;;;;11.70;4.10;;;;;;;16.92;69.96;101539.68;106114;1291;67647;-91
2023/05/25 05:22:34;;;;;;;16.20;4.30;;;;;;;17.49;69.75;101542.73;106005;1291;71457;-91
2023/05/25 05:25:28;;;;;;;10.10;4.40;;;;;;;18.02;69.48;101541.95;106058;1290;59095;-91
2023/05/25 05:28:33;;;;;;;12.80;4.30;;;;;;;18.53;69.40;101534.65;106196;1291;60107;-91
2023/05/25 05:31:41;;;;;;;7.10;3.60;;;;;;;18.98;69.06;101535.50;106092;1291;73742;-91
2023/05/25 05:34:36;;;;;;;10.80;3.80;;;;;;;19.41;68.70;101540.70;106048;1291;68514;-91
2023/05/25 05:37:26;;;;;;;7.60;3.70;;;;;;;19.86;68.83;101538.61;106049;1291;72607;-91
2023/05/25 05:40:24;;;;;;;8.50;3.90;;;;;;;20.21;68.36;101537.18;106171;1291;59028;-91
2023/05/25 05:43:13;;;;;;;9.10;4.10;;;;;;;20.58;68.15;101544.38;106049;1291;60341;-92
2023/05/25 05:46:22;;;;;;;9.80;3.80;;;;;;;20.95;68.02;101548.34;106028;1291;73264;-92
2023/05/25 05:49:19;;;;;;;7.00;4.00;;;;;;;21.38;67.73;101550.83;106140;1291;68409;-91
2023/05/25 05:52:28;;;;;;;10.60;3.70;;;;;;;21.58;67.48;101556.02;105885;1291;71757;-91
2023/05/25 05:55:30;;;;;;;10.50;3.50;;;;;;;21.78;67.05;101555.76;105704;1291;59512;-91
2023/05/25 05:58:18;;;;;;;7.40;3.70;;;;;;;22.11;66.99;101557.30;105756;1290;61205;-91
2023/05/25 06:01:11;;;;;;;11.60;3.60;;;;;;;22.46;66.66;101563.46;98642;1291;10002108;-91
2023/05/25 06:03:58;;;;;;;29.20;4.10;;;;;;;22.68;66.03;101566.04;106088;1291;71413;-91
2023/05/25 06:06:44;;;;;;;;;;;;;;;22.75;65.78;101561.97;105514;1296;59354;-91
2023/05/25 06:09:48;;;;;;;24.80;4.30;;;;;;;22.92;65.49;101563.91;105595;1296;59645;-91
2023/05/25 06:12:37;;;;;;;13.10;4.00;;;;;;;23.18;65.50;101566.59;105645;1296;74430;-91
2023/05/25 06:15:34;;;;;;;8.30;3.10;;;;;;;23.59;64.87;101568.87;105445;1297;67837;-91
2023/05/25 06:18:26;;;;;;;8.40;3.50;;;;;;;23.99;64.56;101572.61;105361;1300;72562;-91
2023/05/25 06:21:18;;;;;;;10.50;3.40;;;;;;;24.42;64.17;101573.32;105395;1300;59262;-92
2023/05/25 06:24:07;;;;;;;8.20;3.70;;;;;;;24.99;63.98;101579.04;105247;1300;59150;-91
2023/05/25 06:26:58;;;;;;;9.30;3.40;;;;;;;25.32;63.07;101579.51;105251;1299;74456;-91
2023/05/25 06:29:48;;;;;;;10.50;3.10;;;;;;;25.70;62.89;101579.52;105345;1300;67561;-91
2023/05/25 06:32:35;;;;;;;7.50;2.70;;;;;;;26.22;62.44;101578.56;105370;1300;72112;-91
2023/05/25 06:35:22;;;;;;;4.30;2.50;;;;;;;26.69;62.01;101578.08;105367;1299;59025;-90
2023/05/25 06:38:08;;;;;;;;;;;;;;;27.11;61.33;101574.25;105467;1296;60272;-91
2023/05/25 06:40:54;;;;;;;5.40;2.80;;;;;;;27.49;61.26;101576.17;105583;1296;73640;-89
2023/05/25 06:43:43;;;;;;;8.40;2.70;;;;;;;27.70;61.02;101570.73;105515;1297;67444;-89
2023/05/25 06:46:30;;;;;;;6.40;2.80;;;;;;;27.87;60.35;101574.30;105218;1297;312482;-90
2023/05/25 06:49:17;;;;;;;8.50;3.30;;;;;;;28.18;59.93;101574.81;105557;1291;59057;-89
2023/05/25 06:52:01;;;;;;;5.50;2.50;;;;;;;28.45;59.22;101575.81;105778;1291;59050;-88
2023/05/25 06:54:45;;;;;;;5.80;2.80;;;;;;;29.06;58.54;101575.51;105886;1291;74545;-86
2023/05/25 06:57:29;;;;;;;3.30;2.50;;;;;;;29.84;57.64;101581.63;105711;1291;68332;-86
2023/05/25 07:00:15;;;;;;;4.50;2.50;;;;;;;30.63;57.00;101579.25;105741;1291;71422;-86
2023/05/25 07:03:00;;;;;;;5.30;3.30;;;;;;;31.45;56.34;101585.60;105948;1291;59050;-86
2023/05/25 07:05:44;;;;;;;5.00;2.80;;;;;;;32.12;55.56;101584.55;105737;1292;59460;-86
2023/05/25 07:08:28;;;;;;;5.80;2.40;;;;;;;32.49;54.89;101588.44;105914;1292;73355;-86
2023/05/25 07:11:13;;;;;;;5.20;2.40;;;;;;;32.97;54.55;101594.03;105835;1291;67470;-86
2023/05/25 07:13:57;;;;;;;4.10;2.60;;;;;;;32.95;54.20;101592.83;105894;1291;71379;-86
2023/05/25 07:16:43;;;;;;;4.90;2.50;;;;;;;32.66;53.86;101588.67;105902;1290;59038;-86
2023/05/25 07:19:27;;;;;;;4.20;2.50;;;;;;;33.17;53.47;101594.13;105952;1291;59152;-86
2023/05/25 07:22:11;;;;;;;7.10;3.90;;;;;;;33.60;52.06;101593.09;105785;1291;74779;-86
2023/05/25 07:24:55;;;;;;;3.30;2.20;;;;;;;33.39;51.30;101589.85;105857;1291;68040;-86
2023/05/25 07:27:41;;;;;;;5.90;2.80;;;;;;;32.65;50.83;101588.71;105731;1291;71461;-86
2023/05/25 07:30:25;;;;;;;8.40;2.60;;;;;;;32.58;50.63;101587.58;105852;1291;59259;-87
2023/05/25 07:33:09;;;;;;;3.90;2.30;;;;;;;32.81;49.49;101590.61;105964;1291;60165;-86
2023/05/25 07:35:53;;;;;;;2.90;2.40;;;;;;;32.44;48.35;101596.79;105989;1289;74616;-86
2023/05/25 07:38:39;;;;;;;;;;;;;;;31.88;47.77;101599.27;106006;1289;67362;-86
2023/05/25 07:41:25;;;;;;;6.30;2.90;;;;;;;31.77;48.00;101604.17;105992;1291;71142;-87
2023/05/25 07:44:11;;;;;;;5.70;3.10;;;;;;;32.37;46.57;101601.89;105853;1291;58853;-86
2023/05/25 07:46:57;;;;;;;;;;;;;;;33.03;45.16;101599.75;106016;1291;59715;-86
2023/05/25 07:49:43;;;;;;;8.60;3.70;;;;;;;34.15;45.13;101598.38;106038;1291;74883;-86
2023/05/25 07:52:29;;;;;;;4.90;3.20;;;;;;;34.86;43.81;101595.61;105973;1291;69426;-86
2023/05/25 07:55:15;;;;;;;;;;;;;;;35.84;43.79;101595.91;105928;1291;71843;-86
2023/05/25 07:58:01;;;;;;;5.00;3.60;;;;;;;36.54;43.25;101602.45;105892;1292;59105;-86
2023/05/25 08:00:48;;;;;;;8.40;3.90;;;;;;;36.41;42.76;101600.63;105873;1291;59000;-86
2023/05/25 08:03:35;;;;;;;6.50;3.30;;;;;;;37.14;42.29;101600.88;105938;1291;73660;-86
2023/05/25 08:06:22;;;;;;;6.60;3.80;;;;;;;36.90;41.75;101600.21;105901;1291;68434;-86
2023/05/25 08:09:08;;;;;;;4.60;3.60;;;;;;;37.10;41.36;101601.33;105872;1295;72445;-86
2023/05/25 08:11:54;;;;;;;4.10;3.30;;;;;;;37.67;40.99;101606.39;106065;1291;59112;-87
2023/05/25 08:14:40;;;;;;;10.20;3.90;;;;;;;38.58;40.00;101601.72;105956;1291;59265;-87
2023/05/25 08:17:26;;;;;;;5.50;4.10;;;;;;;39.43;39.38;101598.45;106005;1291;73563;-87
2023/05/25 08:20:13;;;;;;;5.90;3.80;;;;;;;39.99;38.42;101598.80;106157;1291;67449;-87
2023/05/25 08:23:00;;;;;;;6.20;4.30;;;;;;;40.49;38.16;101595.20;106098;1291;71302;-87
2023/05/25 08:25:46;;;;;;;6.00;4.00;;;;;;;41.23;37.55;101591.70;105926;1291;59039;-87
2023/05/25 08:28:32;;;;;;;5.90;4.10;;;;;;;40.97;36.42;101589.16;106003;1291;59607;-87
2023/05/25 08:31:18;;;;;;;5.30;3.90;;;;;;;41.03;36.27;101588.44;105921;1297;73762;-87
2023/05/25 08:34:04;;;;;;;4.90;4.10;;;;;;;41.69;35.37;101590.95;105908;1291;67171;-87
2023/05/25 08:36:50;;;;;;;5.10;4.00;;;;;;;41.69;34.41;101596.30;106003;1291;72157;-87
2023/05/25 08:39:36;;;;;;;5.30;3.40;;;;;;;41.23;33.71;101590.55;105975;1294;59222;-87
2023/05/25 08:42:22;;;;;;;6.00;3.70;;;;;;;41.50;33.10;101582.51;105990;1290;59172;-87
2023/05/25 08:45:09;;;;;;;8.60;3.60;;;;;;;41.47;32.49;101585.34;105896;1291;74994;-87
2023/05/25 08:47:58;;;;;;;3.90;3.50;;;;;;;39.82;31.52;101587.31;106163;1291;67467;-86
2023/05/25 08:50:46;;;;;;;3.90;3.50;;;;;;;38.10;31.73;101589.54;105976;1291;71289;-86
2023/05/25 08:53:39;;;;;;;4.00;3.10;;;;;;;37.88;30.91;101588.10;106136;1291;59247;-87
2023/05/25 08:56:29;;;;;;;3.30;3.00;;;;;;;35.80;30.49;101586.64;105988;1291;58930;-87
2023/05/25 08:59:38;;;;;;;4.10;3.20;;;;;;;34.09;30.57;101583.34;105983;1290;73381;-86
2023/05/25 09:02:33;;;;;;;6.10;4.20;;;;;;;32.54;30.71;101583.64;105585;1293;525592;-86
2023/05/25 09:05:19;;;;;;;7.80;3.70;;;;;;;31.48;30.39;101576.29;105973;1291;72416;-86
2023/05/25 09:08:06;;;;;;;6.20;3.10;;;;;;;30.28;30.11;101585.95;105873;1291;59037;-85
2023/05/25 09:10:55;;;;;;;5.40;3.30;;;;;;;29.09;30.33;101589.28;106040;1291;59104;-85
2023/05/25 09:13:41;;;;;;;4.70;3.20;;;;;;;28.17;30.40;101587.66;105988;1291;74624;-85
2023/05/25 09:16:30;;;;;;;4.40;3.60;;;;;;;27.57;30.37;101583.75;105980;1293;69117;-85
2023/05/25 09:19:16;;;;;;;3.50;3.20;;;;;;;27.01;30.57;101587.67;105819;1291;70737;-85
2023/05/25 09:22:02;;;;;;;2.80;2.50;;;;;;;26.43;30.57;101588.82;105933;1291;59012;-86
2023/05/25 09:24:48;;;;;;;5.10;3.00;;;;;;;25.87;30.82;101588.00;105883;1292;60100;-86
2023/05/25 09:27:36;;;;;;;;;;;;;;;25.45;31.07;101588.71;105999;1291;73285;-85
2023/05/25 09:30:22;;;;;;;5.50;2.90;;;;;;;25.07;31.25;101588.06;106151;1291;67127;-85
2023/05/25 09:33:18;;;;;;;6.00;3.50;;;;;;;24.84;31.41;101588.75;105762;1291;71221;-85
2023/05/25 09:36:05;;;;;;;5.10;2.70;;;;;;;24.69;31.74;101585.81;105962;1294;58895;-85
2023/05/25 09:38:53;;;;;;;6.10;2.90;;;;;;;24.70;31.94;101590.14;105978;1291;59291;-85
2023/05/25 09:41:40;;;;;;;6.00;3.20;;;;;;;24.71;31.91;101586.38;105909;1291;72171;-85
2023/05/25 09:44:26;;;;;;;4.10;2.80;;;;;;;24.53;32.06;101583.05;105976;1291;67356;-85
2023/05/25 09:47:14;;;;;;;4.10;3.10;;;;;;;24.27;32.19;101588.25;105879;1291;71393;-85
2023/05/25 09:50:01;;;;;;;5.40;3.30;;;;;;;24.02;32.32;101589.34;106003;1291;59161;-85
2023/05/25 09:52:47;;;;;;;6.60;3.10;;;;;;;23.78;32.64;101590.02;106041;1291;60164;-85
2023/05/25 09:55:36;;;;;;;4.30;3.10;;;;;;;23.67;32.95;101590.61;105865;1295;73347;-85
2023/05/25 09:58:25;;;;;;;3.00;2.70;;;;;;;23.71;33.31;101589.89;105967;1291;67168;-85
2023/05/25 10:01:11;;;;;;;5.10;3.20;;;;;;;23.78;33.41;101586.17;105776;1291;72057;-85
2023/05/25 10:03:58;;;;;;;5.10;3.30;;;;;;;23.89;33.65;101585.02;105962;1291;59048;-85
2023/05/25 10:06:46;;;;;;;;;;;;;;;24.00;33.80;101590.17;105923;1291;59638;-85
2023/05/25 10:09:39;;;;;;;5.00;3.00;;;;;;;23.98;33.77;101597.15;105977;1291;73560;-85
2023/05/25 10:12:26;;;;;;;4.80;3.60;;;;;;;23.84;33.98;101602.02;105904;1291;67479;-84
2023/05/25 10:15:13;;;;;;;8.10;3.10;;;;;;;23.70;34.28;101598.73;105846;1291;72564;-85
2023/05/25 10:18:01;;;;;;;5.30;3.30;;;;;;;23.62;34.44;101598.85;105894;1291;59417;-84
2023/05/25 10:20:52;;;;;;;4.00;3.30;;;;;;;23.46;34.53;101604.45;105921;1291;58952;-85
2023/05/25 10:23:46;;;;;;;8.80;3.50;;;;;;;23.30;34.78;101604.80;106097;1291;73692;-84
2023/05/25 10:26:38;;;;;;;5.30;3.40;;;;;;;23.21;34.96;101605.26;105868;1291;67246;-84
2023/05/25 10:29:25;;;;;;;6.50;3.70;;;;;;;23.08;34.89;101605.60;105843;1292;72479;-85
2023/05/25 10:32:12;;;;;;;24.00;4.80;;;;;;;22.92;35.03;101606.27;105886;1291;59140;-84
2023/05/25 10:35:00;;;;;;;5.90;3.30;;;;;;;22.90;35.42;101601.59;105866;1292;59249;-85
2023/05/25 10:37:50;;;;;;;3.70;3.40;;;;;;;22.94;35.58;101596.50;105905;1291;73373;-85
2023/05/25 10:40:37;;;;;;;3.90;3.20;;;;;;;23.03;35.78;101594.77;105888;1291;67854;-87
2023/05/25 10:43:25;;;;;;;3.60;3.30;;;;;;;23.11;35.78;101597.19;105772;1291;73478;-87
2023/05/25 10:46:13;;;;;;;4.90;3.20;;;;;;;23.09;35.69;101590.42;105891;1294;59140;-87
2023/05/25 10:49:01;;;;;;;5.70;3.50;;;;;;;22.80;35.59;101585.98;105881;1291;59273;-87
2023/05/25 10:51:57;;;;;;;4.30;3.00;;;;;;;22.42;36.10;101581.94;105956;1291;74227;-87
2023/05/25 10:54:43;;;;;;;4.30;3.10;;;;;;;22.33;36.38;101581.53;105768;1291;67321;-87
2023/05/25 10:57:29;;;;;;;5.40;3.10;;;;;;;22.27;36.32;101583.42;105948;1291;71336;-87
2023/05/25 11:00:18;;;;;;;3.90;3.20;;;;;;;22.19;36.65;101584.16;105918;1293;58654;-87
2023/05/25 11:03:04;;;;;;;6.70;3.30;;;;;;;22.28;36.82;101589.13;105998;1291;59560;-87
2023/05/25 11:05:50;;;;;;;3.50;3.20;;;;;;;22.33;36.92;101591.70;105951;1291;73886;-87
2023/05/25 11:08:54;;;;;;;5.00;3.00;;;;;;;22.36;37.05;101580.10;105844;1291;68618;-87
2023/05/25 11:11:47;;;;;;;5.80;3.60;;;;;;;22.40;37.14;101579.04;106078;1291;71347;-87
2023/05/25 11:14:37;;;;;;;3.80;2.80;;;;;;;22.42;37.35;101578.91;106047;1291;59130;-87
2023/05/25 11:17:23;;;;;;;4.40;3.10;;;;;;;22.48;37.54;101576.17;105926;1291;58929;-87
2023/05/25 11:20:22;;;;;;;4.00;2.80;;;;;;;22.59;37.67;101577.04;105942;1291;74663;-87
2023/05/25 11:23:28;;;;;;;8.80;3.10;;;;;;;22.64;37.64;101577.30;105970;1291;67195;-87
2023/05/25 11:26:20;;;;;;;3.10;2.80;;;;;;;22.66;37.64;101578.94;105926;1292;72322;-87
2023/05/25 11:29:14;;;;;;;3.10;2.90;;;;;;;22.61;37.75;101576.89;105925;1291;59143;-87
2023/05/25 11:32:01;;;;;;;4.80;3.00;;;;;;;22.62;37.94;101576.51;105849;1291;60191;-87
2023/05/25 11:34:48;;;;;;;3.50;2.80;;;;;;;22.62;37.87;101575.10;105846;1291;73078;-87
2023/05/25 11:37:34;;;;;;;5.40;2.80;;;;;;;22.53;37.89;101574.15;105912;1291;68485;-87
2023/05/25 11:40:24;;;;;;;9.90;2.60;;;;;;;22.42;37.99;101568.92;106056;1291;71284;-87
2023/05/25 11:43:11;;;;;;;4.30;3.20;;;;;;;22.38;38.27;101565.77;105877;1291;59058;-87
2023/05/25 11:45:59;;;;;;;5.40;3.20;;;;;;;22.45;38.36;101563.52;106098;1291;59019;-87
2023/05/25 11:48:53;;;;;;;29.10;4.10;;;;;;;22.43;38.37;101565.68;106071;1291;75289;-87
2023/05/25 11:51:39;;;;;;;6.80;3.00;;;;;;;22.34;38.56;101566.38;105950;1291;69636;-87
2023/05/25 11:54:26;;;;;;;8.50;2.90;;;;;;;22.30;38.60;101563.05;105837;1291;71666;-87
2023/05/25 11:57:23;;;;;;;4.70;2.60;;;;;;;22.23;38.63;101563.91;105668;1291;59269;-87
2023/05/25 12:00:10;;;;;;;7.70;2.50;;;;;;;22.09;38.66;101566.71;105874;1297;59368;-87
2023/05/25 12:02:57;;;;;;;6.20;3.30;;;;;;;21.94;38.70;101561.64;105983;1292;73875;-87
2023/05/25 12:05:43;;;;;;;3.30;2.70;;;;;;;21.90;39.01;101558.14;105944;1291;68636;-87
2023/05/25 12:08:36;;;;;;;4.90;2.70;;;;;;;21.92;39.03;101547.86;105861;1291;71547;-88
2023/05/25 12:11:34;;;;;;;5.20;3.20;;;;;;;21.92;39.28;101547.52;105884;1291;59247;-87
2023/05/25 12:14:20;;;;;;;4.60;2.40;;;;;;;21.92;39.54;101546.80;105837;1291;59183;-87
2023/05/25 12:17:06;;;;;;;4.80;3.10;;;;;;;21.94;39.42;101547.23;105993;1291;72721;-87
2023/05/25 12:19:52;;;;;;;56.30;5.90;;;;;;;21.91;39.42;101543.51;105938;1291;68069;-88
2023/05/25 12:22:38;;;;;;;7.60;2.50;;;;;;;21.87;39.62;101541.60;105938;1291;71624;-87
2023/05/25 12:25:25;;;;;;;3.80;3.20;;;;;;;21.91;39.81;101539.30;105995;1292;59276;-87
2023/05/25 12:28:11;;;;;;;3.10;2.70;;;;;;;21.90;39.68;101537.59;105750;1297;59063;-88
2023/05/25 12:30:57;;;;;;;3.70;2.50;;;;;;;21.90;39.77;101538.48;106044;1291;75198;-87
2023/05/25 12:33:43;;;;;;;3.60;2.60;;;;;;;21.91;39.85;101534.38;105749;1296;59974;-87
2023/05/25 12:36:50;;;;;;;3.40;2.40;;;;;;;21.92;39.96;101534.69;105944;1291;71935;-88
2023/05/25 12:39:38;;;;;;;5.20;2.90;;;;;;;21.93;40.03;101538.49;105948;1291;59274;-88
2023/05/25 12:42:29;;;;;;;6.20;2.60;;;;;;;21.94;40.01;101536.86;105938;1291;59999;-87
2023/05/25 12:45:15;;;;;;;7.00;2.60;;;;;;;21.97;40.07;101540.77;105957;1291;74098;-88
2023/05/25 12:48:02;;;;;;;;;;;;;;;22.00;40.28;101530.07;106004;1291;69026;-87
2023/05/25 12:50:58;;;;;;;3.30;2.10;;;;;;;22.09;40.28;101524.91;106029;1292;71488;-87
2023/05/25 12:53:50;;;;;;;5.40;2.40;;;;;;;22.20;40.28;101527.02;105937;1294;58938;-87
2023/05/25 12:56:55;;;;;;;5.40;2.20;;;;;;;22.25;40.35;101524.85;106142;1291;58870;-87